Time;durP1;ratioP1;P1;durP2;ratioP2;P2;SDS_P1;SDS_P2;PMS_P1;PMS_P2;Temp;Humidity;BMP_temperature;BMP_pressure;BME280_temperature;BME280_humidity;BME280_pressure;Samples;Min_cycle;Max_cycle;Signal;HPM_P1;HPM_P2
2022/09/03 00:00:22;;;;;;;20.05;10.32;;;;;;;23.38;100.00;97668.50;5072285;28;20046;-95
2022/09/03 00:03:07;;;;;;;20.73;10.32;;;;;;;23.52;100.00;97670.94;5062517;28;20091;-92
2022/09/03 00:05:33;;;;;;;21.05;10.77;;;;;;;23.69;100.00;97672.25;5056392;28;20033;-94
2022/09/03 00:08:30;;;;;;;19.33;11.55;;;;;;;23.41;100.00;97676.28;5051988;28;20396;-95
2022/09/03 00:11:01;;;;;;;19.45;11.45;;;;;;;23.29;100.00;97669.25;5046767;28;20021;-93
2022/09/03 00:13:37;;;;;;;23.50;11.73;;;;;;;23.68;100.00;97670.56;5044269;28;20025;-93
2022/09/03 00:16:09;;;;;;;19.70;12.18;;;;;;;23.73;100.00;97670.19;5046801;28;20040;-94
2022/09/03 00:18:48;;;;;;;21.85;11.15;;;;;;;23.96;100.00;97673.66;5047674;28;20017;-93
2022/09/03 00:21:31;;;;;;;20.60;12.10;;;;;;;23.55;100.00;97667.19;5044093;28;20064;-93
2022/09/03 00:24:02;;;;;;;16.75;10.68;;;;;;;24.03;100.00;97674.03;5043952;28;20036;-93
2022/09/03 00:26:32;;;;;;;18.48;11.35;;;;;;;24.50;100.00;97658.59;5044120;28;20025;-96
2022/09/03 00:29:12;;;;;;;20.73;10.77;;;;;;;24.73;100.00;97658.47;5045220;28;20730;-95
2022/09/03 00:31:46;;;;;;;18.80;10.68;;;;;;;24.22;100.00;97667.19;5046470;28;20475;-95
2022/09/03 00:34:32;;;;;;;20.95;10.70;;;;;;;23.80;100.00;97660.75;5049516;28;20033;-93
2022/09/03 00:36:58;;;;;;;21.98;11.15;;;;;;;24.15;100.00;97657.03;5046538;28;20083;-95
2022/09/03 00:39:26;;;;;;;22.00;11.45;;;;;;;25.51;100.00;97655.38;5048668;28;20475;-96
2022/09/03 00:42:06;;;;;;;21.42;12.13;;;;;;;24.65;100.00;97648.47;5044994;28;20037;-95
2022/09/03 00:45:08;;;;;;;17.50;11.50;;;;;;;23.81;100.00;97653.59;5052004;28;20025;-93
2022/09/03 00:48:06;;;;;;;21.42;11.15;;;;;;;23.73;100.00;97650.69;5039098;28;20044;-95
2022/09/03 00:50:59;;;;;;;20.92;11.52;;;;;;;23.56;100.00;97647.56;5047024;28;20082;-95
2022/09/03 00:53:40;;;;;;;21.58;11.43;;;;;;;23.21;100.00;97650.41;5051303;28;20039;-96
2022/09/03 00:56:20;;;;;;;21.02;11.13;;;;;;;23.14;100.00;97637.56;5048947;28;20029;-95
2022/09/03 00:59:13;;;;;;;21.83;10.57;;;;;;;23.38;100.00;97649.88;5045911;28;20033;-96
2022/09/03 01:02:17;;;;;;;25.00;11.38;;;;;;;24.47;100.00;97645.53;5049725;28;20458;-92
2022/09/03 01:05:00;;;;;;;18.58;10.90;;;;;;;24.69;100.00;97641.06;5050035;28;20033;-93
2022/09/03 01:07:48;;;;;;;18.35;11.07;;;;;;;24.41;100.00;97647.84;5047324;28;20029;-91
2022/09/03 01:10:26;;;;;;;19.60;11.15;;;;;;;24.46;100.00;97645.66;5042890;28;20132;-96
2022/09/03 01:13:11;;;;;;;17.02;10.30;;;;;;;24.62;100.00;97646.09;5044864;28;20069;-93
2022/09/03 01:15:58;;;;;;;20.65;10.40;;;;;;;24.71;100.00;97644.44;5038725;28;20475;-93
2022/09/03 01:18:44;;;;;;;19.50;10.70;;;;;;;24.63;100.00;97641.59;5047481;28;20025;-96
2022/09/03 01:21:45;;;;;;;21.45;11.75;;;;;;;24.51;100.00;97638.97;5051374;28;20037;-92
2022/09/03 01:24:30;;;;;;;20.35;12.27;;;;;;;23.43;100.00;97629.09;5041784;28;21012;-96
2022/09/03 01:27:20;;;;;;;21.38;11.70;;;;;;;23.35;100.00;97631.50;5067762;28;20029;-92
2022/09/03 01:30:02;;;;;;;19.38;11.15;;;;;;;23.54;100.00;97625.56;5048232;28;20634;-94
2022/09/03 01:33:01;;;;;;;20.45;11.27;;;;;;;23.48;100.00;97631.38;5040376;28;20051;-94
2022/09/03 01:36:08;;;;;;;19.85;11.25;;;;;;;23.37;100.00;97624.28;5049153;28;20495;-93
2022/09/03 01:38:47;;;;;;;20.60;12.15;;;;;;;23.05;100.00;97622.31;5044779;28;20044;-93
2022/09/03 01:44:36;;;;;;;23.75;14.02;;;;;;;23.05;100.00;97622.31;5046413;28;20515;-93
2022/09/03 01:47:15;;;;;;;22.08;13.18;;;;;;;22.99;100.00;97612.16;5041902;28;20425;-95
2022/09/03 01:49:56;;;;;;;24.50;13.20;;;;;;;22.91;100.00;97612.75;5049597;28;20029;-93
2022/09/03 01:52:43;;;;;;;19.35;11.88;;;;;;;22.97;100.00;97608.78;5047839;28;20070;-96
2022/09/03 01:55:23;;;;;;;18.58;11.98;;;;;;;22.95;100.00;97608.91;5048875;28;20049;-96
2022/09/03 01:57:56;;;;;;;20.77;12.48;;;;;;;23.16;100.00;97613.53;5047364;28;20037;-93
2022/09/03 02:00:23;;;;;;;19.50;12.35;;;;;;;23.02;100.00;97617.25;5051709;28;20032;-93
2022/09/03 02:02:52;;;;;;;21.20;12.80;;;;;;;22.61;100.00;97613.31;5051995;28;20032;-93
2022/09/03 02:05:26;;;;;;;22.65;14.00;;;;;;;22.88;100.00;97604.16;5059101;28;20496;-94
2022/09/03 02:08:05;;;;;;;25.70;13.70;;;;;;;22.83;100.00;97608.03;5069244;28;20045;-93
2022/09/03 02:10:50;;;;;;;29.88;13.25;;;;;;;23.31;100.00;97603.47;5065845;28;20473;-94
2022/09/03 02:13:24;;;;;;;24.05;12.82;;;;;;;23.01;100.00;97592.44;5063601;28;20028;-96
2022/09/03 02:15:53;;;;;;;23.55;12.77;;;;;;;23.17;100.00;97585.94;5059285;28;20039;-95
2022/09/03 02:18:36;;;;;;;21.02;12.60;;;;;;;22.94;100.00;97585.94;5081189;28;20025;-96
2022/09/03 02:21:01;;;;;;;;;;;;;;;23.16;100.00;97581.63;5063053;28;20108;-95
2022/09/03 02:23:27;;;;;;;20.27;12.20;;;;;;;23.16;100.00;97582.44;5061834;28;19954;-94
2022/09/03 02:26:00;;;;;;;24.23;12.82;;;;;;;22.14;100.00;97584.91;5060816;28;20043;-96
2022/09/03 02:28:27;;;;;;;22.08;12.15;;;;;;;21.45;100.00;97585.50;5066735;28;20051;-94
2022/09/03 02:30:53;;;;;;;22.67;13.30;;;;;;;21.28;100.00;97577.91;5061828;28;20033;-95
2022/09/03 02:33:19;;;;;;;23.60;12.90;;;;;;;20.71;100.00;97577.47;5062808;28;20029;-95
2022/09/03 02:35:46;;;;;;;25.92;12.85;;;;;;;21.04;100.00;97578.69;5062673;28;20028;-93
2022/09/03 02:38:18;;;;;;;21.63;13.23;;;;;;;21.02;100.00;97591.22;5056558;28;20033;-95
2022/09/03 02:40:44;;;;;;;21.45;13.75;;;;;;;21.09;100.00;97587.19;5063832;28;20059;-94
2022/09/03 02:43:26;;;;;;;21.67;13.38;;;;;;;21.04;100.00;97578.69;5066390;28;20092;-95
2022/09/03 02:46:01;;;;;;;22.48;14.07;;;;;;;20.85;100.00;97586.25;5061182;28;20033;-94
2022/09/03 02:48:26;;;;;;;27.17;15.00;;;;;;;22.14;100.00;97606.16;5063352;28;20049;-96
2022/09/03 02:50:52;;;;;;;27.48;14.73;;;;;;;21.09;100.00;97581.03;5053789;28;20056;-95
2022/09/03 02:53:18;;;;;;;27.83;15.00;;;;;;;21.07;100.00;97581.16;5048183;28;20105;-95
2022/09/03 02:55:44;;;;;;;23.58;15.23;;;;;;;20.82;100.00;97560.84;5049180;28;20049;-95
2022/09/03 02:58:10;;;;;;;25.10;15.00;;;;;;;20.88;100.00;97563.03;5055233;28;20735;-95
2022/09/03 03:00:38;;;;;;;26.23;16.60;;;;;;;20.94;100.00;97545.84;5060805;28;20067;-95
2022/09/03 03:03:05;;;;;;;26.55;16.13;;;;;;;21.10;100.00;97541.16;5061040;28;20234;-95
2022/09/03 03:05:45;;;;;;;30.27;15.77;;;;;;;20.87;100.00;97549.91;5060992;28;20029;-95
2022/09/03 03:08:13;;;;;;;25.77;15.05;;;;;;;20.79;100.00;97539.84;5057703;28;20621;-96
2022/09/03 03:10:41;;;;;;;26.75;14.43;;;;;;;20.62;100.00;97536.53;5060011;28;20026;-95
2022/09/03 03:13:07;;;;;;;24.65;14.02;;;;;;;20.62;100.00;97541.81;5055142;28;20021;-95
2022/09/03 03:15:33;;;;;;;23.67;14.93;;;;;;;20.57;100.00;97543.09;5060459;28;20124;-95
2022/09/03 03:17:58;;;;;;;24.08;14.13;;;;;;;20.37;100.00;97542.69;5059688;28;20029;-95
2022/09/03 03:20:24;;;;;;;29.05;15.18;;;;;;;20.77;100.00;97547.88;5053004;28;20079;-95
2022/09/03 03:22:52;;;;;;;27.52;15.18;;;;;;;20.26;100.00;97548.72;5047699;28;20064;-93
2022/09/03 03:25:18;;;;;;;28.38;15.60;;;;;;;20.83;100.00;97556.38;5045193;28;20033;-95
2022/09/03 03:27:43;;;;;;;29.98;16.70;;;;;;;20.73;100.00;97558.81;5046067;28;20056;-93
2022/09/03 03:30:09;;;;;;;29.00;18.00;;;;;;;20.60;100.00;97551.69;5043862;28;20212;-93
2022/09/03 03:32:36;;;;;;;30.15;18.92;;;;;;;20.97;100.00;97550.94;5043537;28;20028;-93
2022/09/03 03:35:02;;;;;;;33.92;19.92;;;;;;;20.96;100.00;97549.25;5045585;28;20036;-92
2022/09/03 03:37:27;;;;;;;38.88;21.55;;;;;;;20.72;100.00;97550.00;5040538;28;20056;-92
2022/09/03 03:39:53;;;;;;;39.72;22.08;;;;;;;23.09;100.00;97553.75;5040906;28;20786;-92
2022/09/03 03:42:19;;;;;;;38.30;23.23;;;;;;;20.97;100.00;97542.97;5047861;28;20094;-92
2022/09/03 03:44:44;;;;;;;37.65;23.20;;;;;;;21.06;100.00;97547.63;5046826;28;20028;-94
2022/09/03 03:47:09;;;;;;;41.13;25.52;;;;;;;21.13;100.00;97546.25;5047158;28;20025;-91
2022/09/03 03:49:35;;;;;;;44.55;27.33;;;;;;;21.13;100.00;97538.28;5048761;28;20037;-92
2022/09/03 03:52:02;;;;;;;48.22;29.70;;;;;;;21.09;100.00;97535.97;5049580;28;20645;-92
2022/09/03 03:54:27;;;;;;;50.47;30.08;;;;;;;20.98;100.00;97542.03;5046203;28;20511;-94
2022/09/03 03:56:53;;;;;;;54.00;29.45;;;;;;;21.32;100.00;97531.66;5048972;28;20145;-93
2022/09/03 03:59:18;;;;;;;49.60;29.38;;;;;;;20.74;100.00;97529.56;5048066;28;20037;-93
2022/09/03 04:01:44;;;;;;;51.55;28.33;;;;;;;20.75;100.00;97528.63;5046404;28;20036;-93
2022/09/03 04:04:09;;;;;;;45.72;28.20;;;;;;;21.09;100.00;97530.69;5047356;28;20020;-92
2022/09/03 04:06:34;;;;;;;52.97;30.90;;;;;;;21.07;100.00;97528.13;5044950;28;20056;-93
2022/09/03 04:09:00;;;;;;;52.83;30.05;;;;;;;21.07;100.00;97536.09;5040787;28;20116;-91
2022/09/03 04:11:25;;;;;;;51.38;29.42;;;;;;;20.78;100.00;97532.88;5045605;28;20036;-92
2022/09/03 04:13:51;;;;;;;48.38;29.95;;;;;;;20.74;100.00;97536.69;5046059;28;20451;-93
2022/09/03 04:16:20;;;;;;;51.83;30.95;;;;;;;20.99;100.00;97535.78;5047666;28;20045;-94
2022/09/03 04:18:47;;;;;;;60.92;30.83;;;;;;;20.71;100.00;97539.53;5048049;28;20044;-93
2022/09/03 04:21:16;;;;;;;56.28;31.35;;;;;;;21.18;100.00;97537.13;5045981;28;20020;-94
2022/09/03 04:23:43;;;;;;;52.00;30.77;;;;;;;20.60;100.00;97541.09;5046679;28;20033;-92
2022/09/03 04:26:11;;;;;;;50.90;29.45;;;;;;;20.57;100.00;97537.81;5045235;28;20787;-93
2022/09/03 04:28:37;;;;;;;51.95;30.02;;;;;;;20.46;100.00;97539.41;5047601;28;20041;-93
2022/09/03 04:31:07;;;;;;;57.00;31.05;;;;;;;20.65;100.00;97535.47;5049026;28;20392;-94
2022/09/03 04:33:34;;;;;;;50.60;29.45;;;;;;;20.73;100.00;97540.28;5045203;28;20037;-95
2022/09/03 04:36:07;;;;;;;48.35;29.13;;;;;;;20.35;100.00;97535.78;5049230;28;20025;-93
2022/09/03 04:38:33;;;;;;;;;;;;;;;20.56;100.00;97529.03;5038128;28;20030;-93
2022/09/03 04:40:59;;;;;;;50.42;27.08;;;;;;;20.29;100.00;97526.47;5062648;28;20407;-93
2022/09/03 04:43:26;;;;;;;46.75;26.17;;;;;;;20.31;100.00;97521.09;5049655;28;20033;-92
2022/09/03 04:45:55;;;;;;;50.35;27.77;;;;;;;20.09;100.00;97522.53;5048854;28;20037;-94
2022/09/03 04:48:21;;;;;;;46.47;27.08;;;;;;;20.43;100.00;97517.56;5047598;28;20039;-93
2022/09/03 04:50:46;;;;;;;49.60;28.00;;;;;;;20.90;100.00;97524.00;5048184;28;20611;-93
2022/09/03 04:53:13;;;;;;;49.28;28.50;;;;;;;20.38;100.00;97517.91;5049307;28;20094;-93
2022/09/03 04:55:38;;;;;;;49.13;27.58;;;;;;;20.13;100.00;97522.22;5039842;28;20049;-94
2022/09/03 04:58:06;;;;;;;50.85;28.52;;;;;;;20.28;100.00;97517.69;5049109;28;20035;-95
2022/09/03 05:00:32;;;;;;;47.03;27.63;;;;;;;20.66;100.00;97517.78;5050172;28;20864;-93
2022/09/03 05:03:00;;;;;;;47.50;27.00;;;;;;;20.44;100.00;97516.63;5041913;28;20040;-93
2022/09/03 05:05:25;;;;;;;45.20;26.83;;;;;;;20.39;100.00;97509.00;5044559;28;20033;-93
2022/09/03 05:07:52;;;;;;;43.85;26.70;;;;;;;20.64;100.00;97516.09;5045027;28;20488;-93
2022/09/03 05:10:20;;;;;;;46.70;27.33;;;;;;;20.51;100.00;97515.25;5038304;28;20040;-93
2022/09/03 05:12:47;;;;;;;49.67;28.00;;;;;;;20.46;100.00;97517.38;5047916;28;20035;-94
2022/09/03 05:15:13;;;;;;;47.83;27.88;;;;;;;20.60;100.00;97522.56;5046418;28;20035;-93
2022/09/03 05:17:38;;;;;;;47.72;28.17;;;;;;;20.70;100.00;97530.75;5042431;28;20084;-94
2022/09/03 05:20:07;;;;;;;47.63;29.10;;;;;;;20.74;100.00;97526.09;5047275;28;20402;-94
2022/09/03 05:22:34;;;;;;;45.35;27.80;;;;;;;21.97;100.00;97519.78;5046244;28;20222;-93
2022/09/03 05:24:59;;;;;;;44.67;28.08;;;;;;;22.76;100.00;97524.41;5048236;28;20033;-93
2022/09/03 05:27:25;;;;;;;50.50;27.08;;;;;;;22.89;100.00;97532.25;5046142;28;20110;-92
2022/09/03 05:29:50;;;;;;;51.67;29.73;;;;;;;21.89;100.00;97534.59;5048221;28;20029;-94
2022/09/03 05:32:16;;;;;;;47.60;28.00;;;;;;;21.89;100.00;97532.78;5043825;28;20118;-93
2022/09/03 05:34:42;;;;;;;48.58;27.63;;;;;;;22.12;100.00;97528.41;5044933;28;20029;-93
2022/09/03 05:37:08;;;;;;;48.85;27.20;;;;;;;22.03;100.00;97529.09;5058800;28;20037;-93
2022/09/03 05:39:33;;;;;;;46.40;28.42;;;;;;;21.81;100.00;97536.03;5044974;28;20039;-94
2022/09/03 05:41:59;;;;;;;45.15;27.27;;;;;;;21.56;100.00;97525.53;5040576;28;20036;-93
2022/09/03 05:44:24;;;;;;;45.10;27.90;;;;;;;21.85;100.00;97527.84;5049939;28;20473;-93
2022/09/03 05:46:50;;;;;;;47.92;26.90;;;;;;;22.43;100.00;97534.03;5047139;28;20051;-94
2022/09/03 05:49:16;;;;;;;49.33;28.27;;;;;;;22.96;100.00;97529.97;5045435;28;20029;-93
2022/09/03 05:51:42;;;;;;;45.08;27.33;;;;;;;22.64;100.00;97528.91;5046351;28;20029;-94
2022/09/03 05:54:09;;;;;;;44.35;27.45;;;;;;;22.80;100.00;97525.88;5040276;28;20175;-95
2022/09/03 05:56:41;;;;;;;42.70;26.00;;;;;;;23.08;100.00;97518.34;5048054;28;20105;-93
2022/09/03 05:59:08;;;;;;;47.72;27.10;;;;;;;22.18;100.00;97521.78;5046983;28;20072;-94
2022/09/03 06:01:36;;;;;;;46.88;26.83;;;;;;;21.80;100.00;97514.91;5035111;28;20025;-94
2022/09/03 06:04:06;;;;;;;47.30;27.92;;;;;;;22.46;100.00;97512.59;5041873;28;20025;-95
2022/09/03 06:06:35;;;;;;;47.08;26.65;;;;;;;22.40;100.00;97517.53;5043602;28;20162;-93
2022/09/03 06:09:09;;;;;;;48.88;27.83;;;;;;;22.53;100.00;97514.75;5042575;28;20033;-94
2022/09/03 06:11:37;;;;;;;49.80;27.33;;;;;;;22.93;100.00;97524.91;5037076;28;20049;-93
2022/09/03 06:14:08;;;;;;;46.75;27.48;;;;;;;23.48;100.00;97522.28;5046209;28;20032;-93
2022/09/03 06:16:37;;;;;;;48.70;27.23;;;;;;;23.12;100.00;97530.47;5046985;28;20070;-92
2022/09/03 06:19:08;;;;;;;48.47;26.48;;;;;;;23.43;100.00;97522.66;5045033;28;20491;-94
2022/09/03 06:21:35;;;;;;;45.90;27.70;;;;;;;23.61;100.00;97532.78;5039066;28;20481;-94
2022/09/03 06:24:01;;;;;;;46.80;27.73;;;;;;;23.54;100.00;97531.59;5045317;28;20571;-94
2022/09/03 06:27:14;;;;;;;46.30;27.38;;;;;;;24.02;100.00;97518.72;5047170;28;20035;-92
2022/09/03 06:29:40;;;;;;;51.83;28.33;;;;;;;24.08;100.00;97520.03;5052470;28;20057;-93
2022/09/03 06:32:05;;;;;;;48.55;28.48;;;;;;;23.85;100.00;97525.44;5041798;28;20036;-92
2022/09/03 06:34:31;;;;;;;47.22;28.50;;;;;;;23.51;100.00;97522.88;5060535;28;20037;-93
2022/09/03 06:36:58;;;;;;;51.35;29.35;;;;;;;23.65;100.00;97521.75;5042467;28;20059;-93
2022/09/03 06:39:24;;;;;;;48.60;28.80;;;;;;;23.54;100.00;97521.78;5040786;28;20082;-93
2022/09/03 06:41:50;;;;;;;44.38;26.67;;;;;;;24.10;100.00;97522.56;5050148;28;20476;-93
2022/09/03 06:44:16;;;;;;;52.13;29.88;;;;;;;24.40;100.00;97528.91;5059170;28;20032;-94
2022/09/03 06:46:42;;;;;;;51.53;28.60;;;;;;;23.92;100.00;97516.94;5043335;28;20033;-93
2022/09/03 06:49:08;;;;;;;47.90;28.38;;;;;;;24.02;100.00;97520.53;5040109;28;20097;-93
2022/09/03 06:51:34;;;;;;;44.85;27.20;;;;;;;23.79;100.00;97535.75;5044405;28;20459;-93
2022/09/03 06:54:08;;;;;;;47.60;27.75;;;;;;;23.67;100.00;97542.91;5038713;28;20104;-92
2022/09/03 06:56:35;;;;;;;46.25;28.58;;;;;;;23.69;100.00;97535.66;5042977;28;20068;-91
2022/09/03 06:59:07;;;;;;;48.78;27.98;;;;;;;23.32;100.00;97536.00;5042728;28;20117;-92
2022/09/03 07:01:33;;;;;;;48.15;27.13;;;;;;;23.27;100.00;97538.19;5038604;28;20029;-90
2022/09/03 07:04:01;;;;;;;50.20;27.50;;;;;;;24.48;100.00;97521.97;5039867;28;20029;-91
2022/09/03 07:06:32;;;;;;;42.08;26.70;;;;;;;24.12;100.00;97528.59;5041552;28;20028;-91
2022/09/03 07:08:59;;;;;;;51.58;27.42;;;;;;;23.62;100.00;97523.81;5039229;28;20025;-92
2022/09/03 07:11:30;;;;;;;44.75;26.60;;;;;;;23.79;100.00;97523.25;5038261;28;20029;-91
2022/09/03 07:13:57;;;;;;;43.55;25.52;;;;;;;23.84;100.00;97512.22;5041036;28;20112;-90
2022/09/03 07:16:27;;;;;;;42.45;25.92;;;;;;;23.51;100.00;97514.91;5039663;28;20453;-92
2022/09/03 07:18:54;;;;;;;47.88;27.45;;;;;;;22.58;100.00;97516.06;5040630;28;20088;-91
2022/09/03 07:21:22;;;;;;;45.38;28.55;;;;;;;22.44;100.00;97525.13;5042945;28;20043;-90
2022/09/03 07:23:52;;;;;;;47.72;27.55;;;;;;;22.80;100.00;97531.19;5042163;28;20033;-92
2022/09/03 07:26:26;;;;;;;43.22;27.63;;;;;;;23.18;100.00;97534.44;5040561;28;20024;-93
2022/09/03 07:28:53;;;;;;;44.00;27.00;;;;;;;23.09;100.00;97525.38;5047564;28;20033;-92
2022/09/03 07:31:21;;;;;;;45.25;27.55;;;;;;;22.87;100.00;97539.53;5062192;28;20039;-93
2022/09/03 07:33:46;;;;;;;44.53;27.10;;;;;;;22.57;100.00;97540.94;5043142;28;20520;-90
2022/09/03 07:36:16;;;;;;;43.05;27.27;;;;;;;22.42;100.00;97540.34;5047603;28;20127;-90
2022/09/03 07:38:43;;;;;;;42.78;26.60;;;;;;;22.53;100.00;97534.19;5048076;28;20032;-90
2022/09/03 07:41:10;;;;;;;44.63;27.05;;;;;;;22.60;100.00;97526.59;5049634;28;20031;-91
2022/09/03 07:43:42;;;;;;;42.33;27.48;;;;;;;22.89;100.00;97528.78;5050479;28;20024;-90
2022/09/03 07:46:11;;;;;;;45.53;27.92;;;;;;;22.40;100.00;97528.16;5044083;28;20029;-90
2022/09/03 07:48:42;;;;;;;44.33;28.45;;;;;;;22.79;100.00;97544.59;5047808;28;20028;-91
2022/09/03 07:51:08;;;;;;;48.88;29.48;;;;;;;22.56;100.00;97533.09;5049427;28;20106;-92
2022/09/03 07:53:35;;;;;;;48.40;29.13;;;;;;;23.42;100.00;97544.91;5046658;28;20032;-91
2022/09/03 07:56:06;;;;;;;47.80;29.00;;;;;;;22.97;100.00;97539.66;5048125;28;20029;-91
2022/09/03 07:58:33;;;;;;;48.97;28.38;;;;;;;23.14;100.00;97554.28;5048231;28;20037;-91
2022/09/03 08:01:13;;;;;;;48.75;29.17;;;;;;;22.66;100.00;97553.53;5044849;28;20032;-91
2022/09/03 08:03:44;;;;;;;51.85;29.08;;;;;;;23.59;100.00;97546.22;5051920;28;20309;-91
2022/09/03 08:06:11;;;;;;;47.63;28.27;;;;;;;23.62;100.00;97545.97;5049367;28;20071;-91
2022/09/03 08:08:39;;;;;;;47.95;28.02;;;;;;;23.58;100.00;97547.19;5051029;28;20119;-91
2022/09/03 08:11:11;;;;;;;47.03;29.70;;;;;;;23.43;100.00;97549.28;5045699;28;20043;-91
2022/09/03 08:13:42;;;;;;;52.15;29.05;;;;;;;23.22;100.00;97551.03;5046646;28;20043;-94
2022/09/03 08:16:08;;;;;;;46.47;28.88;;;;;;;23.28;100.00;97555.84;5047911;28;20033;-94
2022/09/03 08:18:37;;;;;;;48.53;29.08;;;;;;;23.44;100.00;97556.28;5049276;28;20029;-90
2022/09/03 08:21:15;;;;;;;48.20;28.83;;;;;;;23.60;100.00;97539.06;5047346;28;20451;-93
2022/09/03 08:23:43;;;;;;;50.30;29.42;;;;;;;23.27;100.00;97540.84;5047712;28;20064;-92
2022/09/03 08:26:09;;;;;;;54.45;29.38;;;;;;;23.59;100.00;97548.00;5049751;28;20485;-92
2022/09/03 08:28:36;;;;;;;51.88;29.27;;;;;;;23.32;100.00;97546.63;5050167;28;20083;-91
2022/09/03 08:31:08;;;;;;;51.60;30.45;;;;;;;23.38;100.00;97546.13;5048472;28;20460;-92
2022/09/03 08:33:37;;;;;;;49.72;29.70;;;;;;;23.44;100.00;97550.13;5049045;28;20044;-89
2022/09/03 08:36:16;;;;;;;52.25;30.42;;;;;;;23.80;100.00;97551.59;5048316;28;20055;-92
2022/09/03 08:38:44;;;;;;;52.88;30.88;;;;;;;23.45;100.00;97559.78;5048725;28;20028;-91
2022/09/03 08:41:22;;;;;;;53.45;32.60;;;;;;;23.69;100.00;97560.44;5048062;28;20108;-91
2022/09/03 08:43:47;;;;;;;53.17;31.27;;;;;;;23.73;100.00;97561.06;5046947;28;20036;-93
2022/09/03 08:46:13;;;;;;;54.42;33.03;;;;;;;23.30;100.00;97572.53;5048655;28;20397;-90
2022/09/03 08:48:38;;;;;;;50.50;32.20;;;;;;;23.44;100.00;97577.56;5046832;28;20033;-90
2022/09/03 08:51:08;;;;;;;57.55;31.38;;;;;;;23.22;100.00;97582.94;5046221;28;20195;-93
2022/09/03 08:53:56;;;;;;;55.47;33.40;;;;;;;23.76;100.00;97583.88;5049451;28;20120;-93
2022/09/03 08:56:28;;;;;;;53.35;32.70;;;;;;;23.86;100.00;97576.84;5044725;28;20029;-92
2022/09/03 08:58:54;;;;;;;57.70;32.97;;;;;;;23.83;100.00;97579.78;5048124;28;20047;-92
2022/09/03 09:01:54;;;;;;;56.55;32.80;;;;;;;23.76;100.00;97582.09;5046962;28;20035;-93
2022/09/03 09:04:34;;;;;;;55.80;32.45;;;;;;;23.30;100.00;97589.31;5047650;28;20040;-91
2022/09/03 09:07:04;;;;;;;51.80;31.88;;;;;;;23.41;100.00;97593.78;5047122;28;20029;-92
2022/09/03 09:10:28;;;;;;;50.53;31.73;;;;;;;23.61;100.00;97594.84;5043540;28;20111;-92
2022/09/03 09:13:18;;;;;;;;;;;;;;;23.35;100.00;97589.81;4960875;28;20042;-92
2022/09/03 09:16:03;;;;;;;53.38;31.92;;;;;;;23.39;100.00;97577.09;4969503;28;19984;-93
2022/09/03 09:18:38;;;;;;;56.10;33.28;;;;;;;24.25;100.00;97579.88;4951691;28;20034;-92
2022/09/03 09:21:12;;;;;;;51.78;31.13;;;;;;;23.30;100.00;97580.50;4950948;28;20038;-93
2022/09/03 09:23:46;;;;;;;52.03;31.42;;;;;;;24.21;100.00;97575.75;4951771;28;20035;-93
2022/09/03 09:26:15;;;;;;;50.45;30.70;;;;;;;24.91;100.00;97585.91;4949611;28;20030;-94
2022/09/03 09:28:42;;;;;;;48.83;30.45;;;;;;;24.69;100.00;97587.72;4967282;28;20046;-92
2022/09/03 09:31:14;;;;;;;47.28;29.33;;;;;;;24.50;100.00;97583.97;4952307;28;20553;-92
2022/09/03 09:33:40;;;;;;;52.50;31.10;;;;;;;24.33;100.00;97585.38;4951717;28;20157;-92
2022/09/03 09:36:09;;;;;;;47.53;30.75;;;;;;;24.73;100.00;97581.16;4965636;28;20092;-94
2022/09/03 09:38:37;;;;;;;48.15;30.60;;;;;;;25.21;100.00;97583.22;4970535;28;20069;-94
2022/09/03 09:41:23;;;;;;;51.70;30.42;;;;;;;24.98;100.00;97587.91;4964358;28;20062;-93
2022/09/03 09:44:04;;;;;;;49.28;29.90;;;;;;;25.29;100.00;97592.34;4963707;28;20057;-92
2022/09/03 09:46:36;;;;;;;50.55;30.75;;;;;;;25.11;100.00;97590.34;4980439;28;20694;-93
2022/09/03 09:49:28;;;;;;;50.45;29.52;;;;;;;22.28;100.00;97575.03;5050541;28;20008;-95
2022/09/03 09:52:24;;;;;;;51.75;30.98;;;;;;;22.42;100.00;97585.50;5073715;28;20096;-96
2022/09/03 09:54:53;;;;;;;48.13;30.00;;;;;;;22.77;100.00;97589.03;5051588;28;20053;-96
2022/09/03 09:57:31;;;;;;;54.20;32.45;;;;;;;22.90;100.00;97587.13;5058401;28;20036;-95
2022/09/03 10:00:11;;;;;;;55.58;32.30;;;;;;;22.43;100.00;97587.19;5082265;28;20028;-94
2022/09/03 10:03:12;;;;;;;51.83;32.60;;;;;;;22.32;100.00;97595.97;5036895;28;20037;-96
2022/09/03 10:05:39;;;;;;;51.85;32.67;;;;;;;22.44;100.00;97586.22;5079712;28;20013;-94
2022/09/03 10:08:31;;;;;;;51.47;32.85;;;;;;;22.87;100.00;97591.81;5073505;28;20088;-95
2022/09/03 10:11:24;;;;;;;54.50;34.72;;;;;;;22.96;100.00;97591.13;5054525;28;20037;-95
2022/09/03 10:14:02;;;;;;;53.37;32.80;;;;;;;22.81;100.00;97587.84;5061750;28;20048;-95
2022/09/03 10:16:39;;;;;;;51.42;32.10;;;;;;;22.93;100.00;97596.69;5038924;28;20105;-95
2022/09/03 10:19:33;;;;;;;55.22;31.75;;;;;;;22.65;100.00;97591.69;5068066;28;20048;-96
2022/09/03 10:22:25;;;;;;;49.03;31.25;;;;;;;25.63;100.00;97595.56;5055470;28;20027;-96
2022/09/03 10:25:37;;;;;;;47.88;32.38;;;;;;;24.95;100.00;97593.47;5075691;28;20045;-96
2022/09/03 10:28:13;;;;;;;50.45;31.77;;;;;;;24.73;100.00;97586.50;5076919;28;20025;-95
2022/09/03 10:34:33;;;;;;;47.80;31.33;;;;;;;24.66;100.00;97596.00;5068928;28;20069;-96
2022/09/03 10:37:08;;;;;;;48.65;29.42;;;;;;;24.94;100.00;97599.81;5074922;28;20056;-96
2022/09/03 10:39:57;;;;;;;47.55;29.65;;;;;;;24.83;100.00;97595.41;5063402;28;20121;-95
2022/09/03 10:42:36;;;;;;;45.92;29.35;;;;;;;25.80;100.00;97593.22;5067065;28;20036;-95
2022/09/03 10:45:39;;;;;;;43.55;29.17;;;;;;;25.47;100.00;97589.91;5075514;28;20009;-96
2022/09/03 10:48:52;;;;;;;48.33;28.50;;;;;;;25.60;100.00;97589.69;5071191;28;20037;-96
2022/09/03 10:51:34;;;;;;;44.90;28.23;;;;;;;25.31;100.00;97582.41;5088209;28;20031;-95
2022/09/03 10:54:23;;;;;;;44.50;28.40;;;;;;;26.05;100.00;97589.19;5068070;28;20045;-96
2022/09/03 10:57:15;;;;;;;44.03;28.27;;;;;;;26.35;100.00;97580.16;5068352;28;20075;-95
2022/09/03 11:00:06;;;;;;;36.53;23.55;;;;;;;25.33;100.00;97591.13;5065718;28;20125;-95
2022/09/03 11:03:02;;;;;;;37.20;21.95;;;;;;;24.75;100.00;97594.38;5069036;28;20029;-94
2022/09/03 11:05:37;;;;;;;36.30;22.95;;;;;;;25.41;100.00;97583.28;5064964;28;20020;-95
2022/09/03 11:08:10;;;;;;;35.17;22.40;;;;;;;25.77;100.00;97583.66;5070010;28;20029;-95
2022/09/03 11:10:43;;;;;;;37.72;24.48;;;;;;;25.75;100.00;97582.97;5058216;28;20021;-96
2022/09/03 11:13:38;;;;;;;37.35;25.08;;;;;;;25.87;100.00;97581.84;5067809;28;20089;-94
2022/09/03 11:16:14;;;;;;;40.03;23.15;;;;;;;26.60;100.00;97571.66;5068007;28;20085;-94
2022/09/03 11:19:02;;;;;;;38.38;23.63;;;;;;;26.65;100.00;97574.75;5071811;28;20695;-95
2022/09/03 11:21:33;;;;;;;32.70;20.20;;;;;;;26.51;100.00;97581.41;5058089;28;20087;-95
2022/09/03 11:24:26;;;;;;;27.60;16.95;;;;;;;26.46;100.00;97579.19;5056162;28;20021;-95
2022/09/03 11:27:26;;;;;;;21.17;10.95;;;;;;;25.96;100.00;97580.16;5064102;28;20039;-96
2022/09/03 11:30:01;;;;;;;16.83;9.45;;;;;;;26.97;100.00;97581.59;5061389;28;20120;-95
2022/09/03 11:32:45;;;;;;;17.02;9.50;;;;;;;26.05;100.00;97581.16;5051786;28;20033;-95
2022/09/03 11:35:42;;;;;;;18.55;10.30;;;;;;;26.24;100.00;97581.16;5059297;28;20069;-94
2022/09/03 11:38:26;;;;;;;18.75;10.93;;;;;;;26.24;100.00;97567.78;5038557;28;20049;-95
2022/09/03 11:41:25;;;;;;;17.17;9.80;;;;;;;26.40;100.00;97580.59;5049557;28;20029;-95
2022/09/03 11:43:57;;;;;;;19.05;10.60;;;;;;;27.31;100.00;97586.38;5049215;28;20029;-96
2022/09/03 11:46:30;;;;;;;17.50;10.07;;;;;;;26.60;100.00;97572.53;5047518;28;20111;-96